Terminal Aerodrome Forecast
Issued by NWS

Home | Current Version | Previous Version | Text Only | Print | Product List | Glossary On
Versions: 1 2 3 4 5 6 7 8 9 10 11 12 13 14 15 16
000
FTUS43 KDTX 310500
TAFMBS
TAF
KMBS 310526Z 3106/0106 21007KT P6SM SCT030 BKN060
     FM310800 23007KT 4SM BR BKN015 OVC025
     FM311300 24010KT P6SM BKN025
     FM311900 26006KT P6SM SCT040 BKN080
     FM010000 22005KT P6SM SCT080=

USA.gov is the U.S. government's official web portal to all federal, state and local government web resources and services.